createdAt,value
2022-11-19T00:00:53.740Z,12.6
2022-11-19T00:06:31.284Z,12.5
2022-11-19T00:12:15.035Z,12.3
2022-11-19T00:17:37.584Z,12
2022-11-19T00:22:59.815Z,11.9
2022-11-19T00:34:30.717Z,11.9
2022-11-19T00:39:37.910Z,11.9
2022-11-19T00:45:16.478Z,12.1
2022-11-19T00:50:54.639Z,12.2
2022-11-19T00:56:31.927Z,12.3
2022-11-19T01:01:54.497Z,12.4
2022-11-19T01:07:17.357Z,12.4
2022-11-19T01:12:55.302Z,12.2
2022-11-19T01:18:32.359Z,11.9
2022-11-19T01:24:10.871Z,11.9
2022-11-19T01:29:37.771Z,11.9
2022-11-19T01:34:59.394Z,11.9
2022-11-19T01:40:37.327Z,11.8
2022-11-19T01:46:14.889Z,11.8
2022-11-19T01:51:36.984Z,12.1
2022-11-19T01:57:15.323Z,11.9
2022-11-19T02:02:53.177Z,11.8
2022-11-19T02:08:31.678Z,11.6
2022-11-19T02:13:53.547Z,11.5
2022-11-19T02:19:31.077Z,11.4
2022-11-19T02:25:14.034Z,11.4
2022-11-19T02:36:11.781Z,11.1
2022-11-19T02:41:50.103Z,10.7
2022-11-19T02:46:57.104Z,10.7
2022-11-19T02:52:34.483Z,10.5
2022-11-19T02:57:56.105Z,10.4
2022-11-19T03:03:35.415Z,10.5
2022-11-19T03:08:56.882Z,10.4
2022-11-19T03:14:35.084Z,10.2
2022-11-19T03:19:56.786Z,10.1
2022-11-19T03:25:18.317Z,9.7
2022-11-19T03:30:40.789Z,10.1
2022-11-19T03:36:18.020Z,10.1
2022-11-19T03:41:56.605Z,10.1
2022-11-19T03:47:33.500Z,9.5
2022-11-19T03:53:13.375Z,9.3
2022-11-19T03:58:50.507Z,9.6
2022-11-19T04:04:34.002Z,9.6
2022-11-19T04:10:12.667Z,9.4
2022-11-19T04:15:48.829Z,8.9
2022-11-19T04:21:11.068Z,9.3
2022-11-19T04:26:18.130Z,9.2
2022-11-19T04:31:55.992Z,9.3
2022-11-19T04:37:02.138Z,9.4
2022-11-19T04:42:40.178Z,9.1
2022-11-19T04:47:46.594Z,8.9
2022-11-19T04:53:30.559Z,8.5
2022-11-19T04:59:09.480Z,8.7
2022-11-19T05:04:32.293Z,8.7
2022-11-19T05:09:54.915Z,8.8
2022-11-19T05:15:37.224Z,8.8
2022-11-19T05:21:14.481Z,8.8
2022-11-19T05:26:52.395Z,8.6
2022-11-19T05:32:37.915Z,8.7
2022-11-19T05:38:20.348Z,8.8
2022-11-19T05:43:58.098Z,8.8
2022-11-19T05:49:36.388Z,8.6
2022-11-19T05:55:14.352Z,8.9
2022-11-19T06:00:52.833Z,8.4
2022-11-19T06:06:31.527Z,8.8
2022-11-19T06:12:08.243Z,8.8
2022-11-19T06:17:50.817Z,8.7
2022-11-19T06:23:30.389Z,9.3
2022-11-19T06:28:53.098Z,9.7
2022-11-19T06:34:31.337Z,10.1
2022-11-19T06:40:15.928Z,10.4
2022-11-19T06:45:58.878Z,11.2
2022-11-19T06:51:38.100Z,11.8
2022-11-19T06:57:18.143Z,12.1
2022-11-19T07:02:56.145Z,12.1
2022-11-19T07:08:36.519Z,12.4
2022-11-19T07:14:14.255Z,12.3
2022-11-19T07:19:38.272Z,12.9
2022-11-19T07:25:17.887Z,13.3
2022-11-19T07:30:56.336Z,13.4
2022-11-19T07:36:35.261Z,13.6
2022-11-19T07:42:19.107Z,13.4
2022-11-19T07:48:02.944Z,13.9
2022-11-19T07:53:29.879Z,13.8
2022-11-19T07:58:59.601Z,14
2022-11-19T08:04:42.470Z,14.4
2022-11-19T08:10:20.056Z,14.5
2022-11-19T08:15:58.301Z,15.4
2022-11-19T08:21:40.790Z,15.3
2022-11-19T08:27:18.538Z,15.9
2022-11-19T08:32:59.570Z,16.3
2022-11-19T08:38:38.896Z,16.4
2022-11-19T08:44:16.720Z,16.8
2022-11-19T08:49:54.735Z,17.3
2022-11-19T08:55:32.776Z,17.6
2022-11-19T09:01:13.939Z,17.5
2022-11-19T09:06:58.493Z,16.4
2022-11-19T09:12:36.531Z,17.4
2022-11-19T09:18:03.484Z,17.1
2022-11-19T09:23:41.237Z,17.2
2022-11-19T09:29:24.775Z,16.5
2022-11-19T09:35:02.110Z,16.7
2022-11-19T09:40:40.104Z,17.9
2022-11-19T09:46:24.611Z,17.9
2022-11-19T09:52:01.789Z,18
2022-11-19T09:57:40.120Z,17.6
2022-11-19T10:03:03.074Z,16.8
2022-11-19T10:08:40.552Z,18.6
2022-11-19T10:14:24.799Z,17.9
2022-11-19T10:19:52.835Z,18
2022-11-19T10:25:31.836Z,19.1
2022-11-19T10:31:09.939Z,18.5
2022-11-19T10:36:47.961Z,19.5
2022-11-19T10:42:31.032Z,18.4
2022-11-19T10:48:12.055Z,18
2022-11-19T10:53:53.645Z,18.5
2022-11-19T10:59:20.737Z,18.3
2022-11-19T11:04:46.479Z,16.7
2022-11-19T11:10:26.337Z,17.7
2022-11-19T11:16:03.955Z,19.1
2022-11-19T11:21:43.227Z,19.6
2022-11-19T11:27:25.688Z,19.8
2022-11-19T11:33:06.516Z,20.2
2022-11-19T11:38:35.893Z,18.9
2022-11-19T11:44:18.403Z,17.4
2022-11-19T11:50:02.937Z,17.8
2022-11-19T11:55:25.477Z,18.1
2022-11-19T12:00:32.403Z,17.9
2022-11-19T12:06:08.580Z,17.8
2022-11-19T12:11:52.325Z,18.1
2022-11-19T12:17:36.076Z,18.3
2022-11-19T12:22:58.503Z,17.9
2022-11-19T12:28:35.969Z,17.7
2022-11-19T12:34:13.464Z,17.9
2022-11-19T12:39:51.409Z,17.9
2022-11-19T12:45:30.645Z,17.8
2022-11-19T12:51:10.365Z,17.6
2022-11-19T12:56:53.833Z,17.4
2022-11-19T13:02:32.371Z,17.4
2022-11-19T13:07:58.054Z,17.4
2022-11-19T13:13:20.717Z,17.1
2022-11-19T13:18:43.423Z,17.1
2022-11-19T13:24:20.930Z,17.2
2022-11-19T13:29:58.976Z,17.1
2022-11-19T13:35:37.257Z,17.1
2022-11-19T13:41:20.527Z,16.9
2022-11-19T13:47:24.307Z,16.8
2022-11-19T13:53:04.123Z,16.8
2022-11-19T13:58:44.928Z,16.8
2022-11-19T14:04:23.074Z,16.7
2022-11-19T14:10:05.742Z,16.6
2022-11-19T14:15:28.038Z,16.3
2022-11-19T14:20:39.663Z,16.3
2022-11-19T14:26:02.462Z,16.1
2022-11-19T14:31:40.708Z,16.1
2022-11-19T14:37:19.193Z,16.1
2022-11-19T14:43:01.679Z,15.6
2022-11-19T14:48:25.199Z,15.4
2022-11-19T14:54:03.291Z,15.4
2022-11-19T14:59:41.501Z,15.2
2022-11-19T15:05:19.805Z,15.1
2022-11-19T15:11:04.031Z,15.1
2022-11-19T15:16:25.857Z,14.9
2022-11-19T15:27:32.083Z,14.4
2022-11-19T15:32:41.003Z,14.3
2022-11-19T15:38:38.663Z,14
2022-11-19T15:44:01.484Z,14.3
2022-11-19T15:54:37.453Z,14.1
2022-11-19T15:59:59.710Z,13.9
2022-11-19T16:05:23.298Z,14.1
2022-11-19T16:10:45.544Z,14.1
2022-11-19T16:16:10.424Z,14.1
2022-11-19T16:21:38.829Z,13.9
2022-11-19T16:27:20.957Z,13.9
2022-11-19T16:32:59.440Z,13.7
2022-11-19T16:38:44.270Z,13.6
2022-11-19T16:44:22.643Z,13.4
2022-11-19T16:49:45.098Z,13.2
2022-11-19T16:55:22.752Z,13.1
2022-11-19T17:00:49.066Z,12.9
2022-11-19T17:06:33.056Z,12.9
2022-11-19T17:12:10.625Z,12.9
2022-11-19T17:17:38.493Z,12.8
2022-11-19T17:23:17.485Z,12.8
2022-11-19T17:28:43.915Z,12.6
2022-11-19T17:34:27.059Z,12.8
2022-11-19T17:39:48.974Z,12.6
2022-11-19T17:45:12.058Z,12.5
2022-11-19T17:50:46.678Z,12.6
2022-11-19T17:56:09.200Z,12.6
2022-11-19T18:01:47.374Z,12.9
2022-11-19T18:07:27.625Z,12.8
2022-11-19T18:12:35.198Z,12.6
2022-11-19T18:17:43.613Z,12.3
2022-11-19T18:23:23.413Z,12.1
2022-11-19T18:29:05.664Z,12.1
2022-11-19T18:34:29.697Z,11.7
2022-11-19T18:39:54.637Z,11.4
2022-11-19T18:45:39.531Z,11.3
2022-11-19T18:51:20.831Z,11.2
2022-11-19T18:57:00.147Z,11.1
2022-11-19T19:07:44.490Z,11.3
2022-11-19T19:13:10.262Z,11.7
2022-11-19T19:18:53.548Z,11.8
2022-11-19T19:24:17.825Z,11.9
2022-11-19T19:30:04.204Z,11.7
2022-11-19T19:35:33.484Z,11.9
2022-11-19T19:41:12.807Z,11.9
2022-11-19T19:46:57.892Z,11.9
2022-11-19T19:52:37.630Z,12.3
2022-11-19T19:58:17.265Z,11.9
2022-11-19T20:03:42.689Z,12.8
2022-11-19T20:09:26.030Z,12.6
2022-11-19T20:15:05.455Z,11.9
2022-11-19T20:20:34.183Z,11.6
2022-11-19T20:26:14.698Z,11.6
2022-11-19T20:31:54.589Z,11.9
2022-11-19T20:37:32.841Z,11.9
2022-11-19T20:42:55.492Z,11.8
2022-11-19T20:48:39.805Z,12
2022-11-19T20:54:21.677Z,11.8
2022-11-19T21:00:04.252Z,11.7
2022-11-19T21:05:46.730Z,11.9
2022-11-19T21:11:15.057Z,11.8
2022-11-19T21:16:37.189Z,11.8
2022-11-19T21:22:18.615Z,11.6
2022-11-19T21:28:01.953Z,11.7
2022-11-19T21:33:40.360Z,11.7
2022-11-19T21:39:19.930Z,11.6
2022-11-19T21:44:59.368Z,12.3
2022-11-19T21:50:37.358Z,12.4
2022-11-19T21:56:14.870Z,12.1
2022-11-19T22:01:58.513Z,12.1
2022-11-19T22:07:36.367Z,12.1
2022-11-19T22:13:04.614Z,12.6
2022-11-19T22:18:27.106Z,13.1
2022-11-19T22:24:05.341Z,12.5
2022-11-19T22:29:43.427Z,12.6
2022-11-19T22:35:27.482Z,13.3
2022-11-19T22:51:25.044Z,13.5
2022-11-19T22:56:32.485Z,14.5
2022-11-19T23:01:55.877Z,14
2022-11-19T23:07:38.974Z,14
2022-11-19T23:13:01.660Z,14.4
2022-11-19T23:18:39.966Z,15.1
2022-11-19T23:24:20.573Z,16
2022-11-19T23:29:58.317Z,16.6
2022-11-19T23:35:42.318Z,17.1
2022-11-19T23:41:05.681Z,16.9
2022-11-19T23:46:48.131Z,18.3
2022-11-19T23:52:26.175Z,17.8
2022-11-19T23:58:04.958Z,18.4
